createdAt,value
2022-11-07T00:00:39.260Z,99753.00
2022-11-07T00:01:41.551Z,99756.97
2022-11-07T00:02:43.264Z,99761.03
2022-11-07T00:03:45.188Z,99737.16
2022-11-07T00:04:47.470Z,99760.16
2022-11-07T00:05:49.161Z,99757.25
2022-11-07T00:06:51.628Z,99758.31
2022-11-07T00:07:53.562Z,99747.34
2022-11-07T00:08:58.118Z,99771.56
2022-11-07T00:10:00.146Z,99755.19
2022-11-07T00:11:02.521Z,99765.63
2022-11-07T00:12:04.582Z,99759.22
2022-11-07T00:13:06.939Z,99772.28
2022-11-07T00:14:08.498Z,99755.50
2022-11-07T00:15:11.159Z,99772.84
2022-11-07T00:16:13.269Z,99777.09
2022-11-07T00:17:14.867Z,99769.88
2022-11-07T00:18:18.238Z,99775.81
2022-11-07T00:19:22.028Z,99774.50
2022-11-07T00:20:23.990Z,99773.50
2022-11-07T00:21:25.585Z,99791.97
2022-11-07T00:22:33.659Z,99785.34
2022-11-07T00:23:36.611Z,99768.00
2022-11-07T00:24:38.482Z,99788.63
2022-11-07T00:25:45.260Z,99772.41
2022-11-07T00:26:48.116Z,99776.41
2022-11-07T00:27:52.262Z,99778.91
2022-11-07T00:28:53.964Z,99776.34
2022-11-07T00:29:55.540Z,99782.13
2022-11-07T00:30:58.745Z,99797.50
2022-11-07T00:32:00.276Z,99793.72
2022-11-07T00:33:02.789Z,99783.38
2022-11-07T00:34:04.445Z,99780.84
2022-11-07T00:35:07.153Z,99777.81
2022-11-07T00:36:10.536Z,99783.75
2022-11-07T00:37:13.138Z,99777.41
2022-11-07T00:38:15.175Z,99786.53
2022-11-07T00:39:17.906Z,99777.16
2022-11-07T00:40:20.549Z,99770.34
2022-11-07T00:41:22.852Z,99777.31
2022-11-07T00:42:24.516Z,99780.38
2022-11-07T00:43:27.096Z,99750.56
2022-11-07T00:44:28.869Z,99783.56
2022-11-07T00:45:30.452Z,99770.97
2022-11-07T00:46:32.370Z,99790.38
2022-11-07T00:47:33.991Z,99791.94
2022-11-07T00:48:37.169Z,99788.25
2022-11-07T00:49:39.274Z,99783.91
2022-11-07T00:50:41.149Z,99801.22
2022-11-07T00:51:42.827Z,99783.38
2022-11-07T00:52:45.846Z,99797.25
2022-11-07T00:53:48.687Z,99745.56
2022-11-07T00:54:50.837Z,99791.31
2022-11-07T00:55:52.493Z,99795.78
2022-11-07T00:56:54.657Z,99776.03
2022-11-07T00:57:57.779Z,99802.28
2022-11-07T00:59:01.169Z,99807.28
2022-11-07T01:00:04.659Z,99804.66
2022-11-07T01:01:21.559Z,99803.97
2022-11-07T01:02:23.421Z,99798.28
2022-11-07T01:03:44.672Z,99812.16
2022-11-07T01:05:05.834Z,99799.38
2022-11-07T01:06:08.104Z,99786.75
2022-11-07T01:07:09.749Z,99781.44
2022-11-07T01:08:11.608Z,99801.22
2022-11-07T01:09:20.852Z,99791.25
2022-11-07T01:10:22.882Z,99787.09
2022-11-07T01:11:26.644Z,99818.28
2022-11-07T01:13:04.390Z,99802.59
2022-11-07T01:14:24.352Z,99800.56
2022-11-07T01:15:29.976Z,99792.63
2022-11-07T01:16:35.291Z,99808.88
2022-11-07T01:17:52.593Z,99786.16
2022-11-07T01:18:58.011Z,99799.91
2022-11-07T01:20:05.527Z,99811.66
2022-11-07T01:21:16.244Z,99795.00
2022-11-07T01:22:19.869Z,99804.56
2022-11-07T01:23:22.918Z,99793.13
2022-11-07T01:24:24.948Z,99806.41
2022-11-07T01:25:36.774Z,99804.66
2022-11-07T01:26:49.656Z,99788.63
2022-11-07T01:27:57.544Z,99805.94
2022-11-07T01:28:59.191Z,99807.38
2022-11-07T01:30:00.797Z,99802.78
2022-11-07T01:31:10.161Z,99786.47
2022-11-07T01:32:16.776Z,99805.78
2022-11-07T01:33:21.207Z,99803.16
2022-11-07T01:34:23.120Z,99793.50
2022-11-07T01:35:25.059Z,99789.56
2022-11-07T01:36:29.219Z,99801.28
2022-11-07T01:37:31.430Z,99790.09
2022-11-07T01:38:33.274Z,99792.28
2022-11-07T01:39:35.334Z,99787.03
2022-11-07T01:41:02.740Z,99792.63
2022-11-07T01:42:05.193Z,99769.84
2022-11-07T01:43:11.238Z,99797.44
2022-11-07T01:44:13.064Z,99796.13
2022-11-07T01:45:21.577Z,99797.88
2022-11-07T01:46:37.279Z,99790.75
2022-11-07T01:47:40.567Z,99792.63
2022-11-07T01:48:47.491Z,99796.13
2022-11-07T01:49:50.472Z,99793.13
2022-11-07T01:50:52.195Z,99808.16
2022-11-07T01:52:02.081Z,99794.75
2022-11-07T01:53:04.731Z,99807.75
2022-11-07T01:54:07.329Z,99793.75
2022-11-07T01:55:12.040Z,99797.22
2022-11-07T01:56:17.427Z,99794.41
2022-11-07T01:57:57.616Z,99780.69
2022-11-07T01:59:01.532Z,99776.88
2022-11-07T02:00:07.805Z,99792.22
2022-11-07T02:01:09.833Z,99785.72
2022-11-07T02:02:11.665Z,99780.59
2022-11-07T02:03:19.565Z,99791.22
2022-11-07T02:04:25.952Z,99791.53
2022-11-07T02:05:38.905Z,99788.47
2022-11-07T02:06:48.667Z,99788.28
2022-11-07T02:07:50.810Z,99778.41
2022-11-07T02:08:53.094Z,99778.13
2022-11-07T02:09:55.473Z,99785.78
2022-11-07T02:11:01.702Z,99803.09
2022-11-07T02:12:04.063Z,99784.25
2022-11-07T02:13:05.751Z,99780.09
2022-11-07T02:14:07.467Z,99764.75
2022-11-07T02:15:13.485Z,99776.72
2022-11-07T02:16:16.340Z,99792.63
2022-11-07T02:17:19.078Z,99788.25
2022-11-07T02:18:23.013Z,99787.31
2022-11-07T02:19:35.797Z,99795.38
2022-11-07T02:20:37.798Z,99782.72
2022-11-07T02:21:53.889Z,99789.34
2022-11-07T02:22:59.328Z,99791.88
2022-11-07T02:24:09.744Z,99787.22
2022-11-07T02:25:14.909Z,99782.97
2022-11-07T02:26:17.619Z,99780.34
2022-11-07T02:27:21.975Z,99784.09
2022-11-07T02:28:24.861Z,99775.44
2022-11-07T02:29:27.557Z,99781.47
2022-11-07T02:30:35.856Z,99776.38
2022-11-07T02:31:38.565Z,99789.84
2022-11-07T02:32:41.646Z,99786.63
2022-11-07T02:33:43.216Z,99790.41
2022-11-07T02:34:44.965Z,99791.50
2022-11-07T02:35:48.840Z,99774.28
2022-11-07T02:36:54.427Z,99787.44
2022-11-07T02:38:02.888Z,99783.63
2022-11-07T02:39:05.184Z,99763.06
2022-11-07T02:40:09.574Z,99797.34
2022-11-07T02:41:37.002Z,99781.25
2022-11-07T02:42:45.837Z,99787.63
2022-11-07T02:44:11.726Z,99786.22
2022-11-07T02:45:25.374Z,99777.28
2022-11-07T02:46:28.550Z,99782.22
2022-11-07T02:47:50.183Z,99783.06
2022-11-07T02:49:44.032Z,99783.13
2022-11-07T03:59:57.958Z,99828.38
2022-11-07T04:01:03.755Z,99842.81
2022-11-07T04:02:34.800Z,99837.00
2022-11-07T04:03:45.393Z,99830.13
2022-11-07T04:04:55.851Z,99832.13
2022-11-07T04:06:06.218Z,99836.53
2022-11-07T04:07:08.333Z,99842.53
2022-11-07T04:08:12.905Z,99837.38
2022-11-07T04:09:14.698Z,99834.88
2022-11-07T04:10:19.298Z,99822.75
2022-11-07T04:11:39.975Z,99842.16
2022-11-07T04:13:00.303Z,99845.63
2022-11-07T04:14:20.376Z,99837.03
2022-11-07T04:15:43.879Z,99853.56
2022-11-07T04:17:07.104Z,99844.16
2022-11-07T04:18:08.954Z,99842.47
2022-11-07T04:19:10.508Z,99859.31
2022-11-07T04:20:12.205Z,99856.72
2022-11-07T04:21:16.960Z,99851.63
2022-11-07T04:22:19.265Z,99855.34
2022-11-07T04:23:21.121Z,99855.50
2022-11-07T04:24:22.979Z,99854.09
2022-11-07T04:25:44.687Z,99855.19
2022-11-07T04:27:05.127Z,99854.28
2022-11-07T04:28:07.002Z,99852.19
2022-11-07T04:29:08.885Z,99858.34
2022-11-07T04:30:29.980Z,99867.19
2022-11-07T04:31:32.034Z,99861.16
2022-11-07T04:32:33.879Z,99865.47
2022-11-07T04:33:35.623Z,99861.94
2022-11-07T04:34:37.545Z,99867.31
2022-11-07T04:35:39.336Z,99859.69
2022-11-07T04:36:42.020Z,99863.22
2022-11-07T04:37:44.054Z,99881.53
2022-11-07T04:38:45.706Z,99868.22
2022-11-07T04:39:47.358Z,99859.84
2022-11-07T04:40:58.847Z,99867.66
2022-11-07T04:42:00.477Z,99875.53
2022-11-07T04:43:08.870Z,99864.06
2022-11-07T04:44:10.531Z,99863.78
2022-11-07T04:45:19.397Z,99871.94
2022-11-07T04:46:23.137Z,99877.03
2022-11-07T04:47:24.755Z,99868.31
2022-11-07T04:48:26.456Z,99862.94
2022-11-07T04:49:28.161Z,99870.84
2022-11-07T04:50:30.481Z,99872.44
2022-11-07T04:51:42.489Z,99851.69
2022-11-07T04:52:46.706Z,99870.78
2022-11-07T04:53:48.596Z,99859.41
2022-11-07T04:54:50.339Z,99853.31
2022-11-07T04:55:51.920Z,99857.94
2022-11-07T04:56:53.599Z,99843.69
2022-11-07T04:57:55.187Z,99858.53
2022-11-07T04:58:56.842Z,99858.66
2022-11-07T04:59:58.529Z,99860.53
2022-11-07T05:01:00.240Z,99865.03
2022-11-07T05:02:02.404Z,99865.78
2022-11-07T05:03:04.564Z,99850.47
2022-11-07T05:04:06.327Z,99856.16
2022-11-07T05:05:08.521Z,99857.09
2022-11-07T05:06:13.871Z,99860.56
2022-11-07T05:07:15.479Z,99860.56
2022-11-07T05:08:17.306Z,99855.56
2022-11-07T05:09:19.797Z,99864.44
2022-11-07T05:10:27.636Z,99853.28
2022-11-07T05:11:29.351Z,99854.88
2022-11-07T05:12:31.239Z,99855.91
2022-11-07T05:13:33.033Z,99860.38
2022-11-07T05:14:35.776Z,99855.72
2022-11-07T05:15:38.039Z,99858.78
2022-11-07T05:16:42.300Z,99863.91
2022-11-07T05:17:44.505Z,99858.22
2022-11-07T05:18:46.584Z,99860.69
2022-11-07T05:19:48.241Z,99866.81
2022-11-07T05:20:52.679Z,99863.31
2022-11-07T05:22:13.098Z,99875.59
2022-11-07T05:23:16.131Z,99856.34
2022-11-07T05:24:18.072Z,99864.78
2022-11-07T05:25:21.163Z,99860.09
2022-11-07T05:26:23.008Z,99858.44
2022-11-07T05:27:25.413Z,99857.66
2022-11-07T05:28:36.903Z,99863.53
2022-11-07T05:29:40.620Z,99863.84
2022-11-07T05:30:43.486Z,99865.53
2022-11-07T05:31:45.316Z,99874.03
2022-11-07T05:32:47.178Z,99867.59
2022-11-07T05:33:48.999Z,99869.44
2022-11-07T05:34:51.227Z,99873.84
2022-11-07T05:35:53.524Z,99880.06
2022-11-07T05:36:57.324Z,99887.09
2022-11-07T05:37:58.917Z,99876.66
2022-11-07T05:39:00.892Z,99872.31
2022-11-07T05:40:02.689Z,99861.72
2022-11-07T05:41:04.489Z,99863.53
2022-11-07T05:42:06.470Z,99875.72
2022-11-07T05:43:16.158Z,99870.63
2022-11-07T05:44:18.080Z,99879.44
2022-11-07T05:45:20.110Z,99873.44
2022-11-07T05:46:21.883Z,99867.56
2022-11-07T05:47:24.143Z,99872.13
2022-11-07T05:48:26.264Z,99864.56
2022-11-07T05:49:28.012Z,99871.94
2022-11-07T05:50:30.468Z,99875.56
2022-11-07T05:51:32.690Z,99865.63
2022-11-07T05:52:34.757Z,99864.69
2022-11-07T05:53:36.810Z,99864.94
2022-11-07T05:54:38.514Z,99869.19
2022-11-07T05:55:40.660Z,99862.44
2022-11-07T05:56:44.067Z,99875.06
2022-11-07T05:57:46.591Z,99874.34
2022-11-07T05:58:48.365Z,99868.38
2022-11-07T05:59:50.045Z,99863.84
2022-11-07T06:00:51.716Z,99877.03
2022-11-07T06:01:54.319Z,99873.72
2022-11-07T06:03:00.502Z,99869.63
2022-11-07T06:04:06.746Z,99867.19
2022-11-07T06:05:08.972Z,99867.66
2022-11-07T06:06:10.833Z,99875.34
2022-11-07T06:07:12.677Z,99868.56
2022-11-07T06:08:14.485Z,99860.78
2022-11-07T06:09:16.340Z,99860.13
2022-11-07T06:10:18.886Z,99875.50
2022-11-07T06:11:20.511Z,99872.44
2022-11-07T06:12:22.274Z,99864.91
2022-11-07T06:13:49.779Z,99871.31
2022-11-07T06:14:51.474Z,99887.81
2022-11-07T06:15:53.081Z,99888.44
2022-11-07T06:16:54.725Z,99885.69
2022-11-07T06:17:59.589Z,99888.31
2022-11-07T06:19:43.693Z,99892.84
2022-11-07T06:20:45.620Z,99886.13
2022-11-07T06:21:47.432Z,99885.19
2022-11-07T06:22:49.041Z,99892.22
2022-11-07T06:23:50.666Z,99891.16
2022-11-07T06:24:52.487Z,99896.94
2022-11-07T06:25:54.279Z,99893.00
2022-11-07T06:26:55.899Z,99891.38
2022-11-07T06:28:02.798Z,99894.22
2022-11-07T06:29:04.490Z,99897.03
2022-11-07T06:30:07.002Z,99886.75
2022-11-07T06:31:09.861Z,99890.94
2022-11-07T06:32:11.447Z,99894.41
2022-11-07T06:33:16.214Z,99893.31
2022-11-07T06:34:18.086Z,99880.88
2022-11-07T06:35:19.917Z,99888.09
2022-11-07T06:36:21.790Z,99885.31
2022-11-07T06:37:26.042Z,99884.41
2022-11-07T06:38:27.691Z,99884.53
2022-11-07T06:39:29.245Z,99883.78
2022-11-07T06:40:31.552Z,99878.59
2022-11-07T06:41:33.349Z,99862.53
2022-11-07T06:42:35.545Z,99890.63
2022-11-07T06:43:37.930Z,99881.06
2022-11-07T06:44:39.650Z,99889.09
2022-11-07T06:45:42.271Z,99902.97
2022-11-07T06:46:47.031Z,99906.41
2022-11-07T06:47:48.764Z,99899.88
2022-11-07T06:48:51.050Z,99900.06
2022-11-07T06:49:52.750Z,99898.19
2022-11-07T06:51:02.291Z,99901.59
2022-11-07T06:52:04.175Z,99897.09
2022-11-07T06:53:08.700Z,99898.63
2022-11-07T06:54:10.411Z,99899.50
2022-11-07T06:55:11.968Z,99906.47
2022-11-07T06:56:15.854Z,99894.47
2022-11-07T06:57:17.850Z,99908.13
2022-11-07T06:58:19.609Z,99911.75
2022-11-07T06:59:21.459Z,99914.63
2022-11-07T07:00:23.461Z,99911.09
2022-11-07T07:01:25.182Z,99904.69
2022-11-07T07:02:56.420Z,99906.22
2022-11-07T07:03:48.704Z,99919.25
2022-11-07T07:04:50.324Z,99905.34
2022-11-07T07:05:51.918Z,99907.22
2022-11-07T07:06:53.689Z,99920.59
2022-11-07T07:07:56.072Z,99908.63
2022-11-07T07:08:58.298Z,99921.06
2022-11-07T07:10:00.036Z,99924.31
2022-11-07T07:11:03.713Z,99927.78
2022-11-07T07:12:05.694Z,99924.00
2022-11-07T07:13:07.367Z,99915.78
2022-11-07T07:14:11.738Z,99929.53
2022-11-07T07:15:13.604Z,99924.22
2022-11-07T07:16:15.308Z,99928.59
2022-11-07T07:17:16.924Z,99922.50
2022-11-07T07:18:19.632Z,99919.09
2022-11-07T07:19:21.391Z,99919.47
2022-11-07T07:20:23.097Z,99929.66
2022-11-07T07:21:24.797Z,99919.91
2022-11-07T07:22:26.429Z,99915.66
2022-11-07T07:23:28.082Z,99918.97
2022-11-07T07:24:29.909Z,99924.00
2022-11-07T07:25:31.589Z,99928.00
2022-11-07T07:26:33.482Z,99930.88
2022-11-07T07:27:35.167Z,99929.53
2022-11-07T07:28:37.424Z,99927.34
2022-11-07T07:29:39.213Z,99928.88
2022-11-07T07:30:41.113Z,99922.50
2022-11-07T07:31:42.926Z,99931.75
2022-11-07T07:32:44.598Z,99929.72
2022-11-07T07:33:48.169Z,99930.00
2022-11-07T07:34:49.873Z,99924.97
2022-11-07T07:35:51.554Z,99919.38
2022-11-07T07:36:53.974Z,99929.19
2022-11-07T07:37:55.679Z,99926.75
2022-11-07T07:38:57.325Z,99931.53
2022-11-07T07:39:58.961Z,99922.47
2022-11-07T07:41:01.392Z,99931.88
2022-11-07T07:42:03.233Z,99905.91
2022-11-07T07:43:04.900Z,99938.75
2022-11-07T07:44:06.647Z,99921.94
2022-11-07T07:45:10.396Z,99917.50
2022-11-07T07:46:16.209Z,99932.56
2022-11-07T07:47:17.867Z,99938.00
2022-11-07T07:48:19.913Z,99924.50
2022-11-07T07:49:21.474Z,99929.00
2022-11-07T07:50:23.238Z,99923.25
2022-11-07T07:51:25.135Z,99937.06
2022-11-07T07:52:26.954Z,99930.88
2022-11-07T07:53:28.636Z,99927.00
2022-11-07T07:54:30.623Z,99925.88
2022-11-07T07:55:32.288Z,99925.13
2022-11-07T07:56:34.446Z,99927.66
2022-11-07T07:57:40.999Z,99935.31
2022-11-07T07:58:42.793Z,99937.97
2022-11-07T07:59:44.654Z,99942.31
2022-11-07T08:00:46.430Z,99942.03
2022-11-07T08:01:53.567Z,99932.44
2022-11-07T08:03:05.985Z,99942.38
2022-11-07T08:04:07.707Z,99944.16
2022-11-07T08:05:10.922Z,99936.25
2022-11-07T08:06:12.750Z,99943.38
2022-11-07T08:07:14.418Z,99942.72
2022-11-07T08:08:16.664Z,99946.22
2022-11-07T08:09:18.539Z,99943.38
2022-11-07T08:10:41.321Z,99936.44
2022-11-07T08:11:42.133Z,99948.16
2022-11-07T08:12:45.238Z,99942.03
2022-11-07T08:13:46.956Z,99946.22
2022-11-07T08:14:48.695Z,99938.97
2022-11-07T08:15:52.201Z,99937.09
2022-11-07T08:16:53.788Z,99936.50
2022-11-07T08:17:55.468Z,99932.28
2022-11-07T08:18:57.133Z,99940.06
2022-11-07T08:19:58.805Z,99941.41
2022-11-07T08:21:00.592Z,99960.44
2022-11-07T08:22:02.311Z,99947.75
2022-11-07T08:23:11.258Z,99943.34
2022-11-07T08:24:17.676Z,99947.13
2022-11-07T08:25:19.394Z,99938.16
2022-11-07T08:26:21.842Z,99951.44
2022-11-07T08:27:23.393Z,99950.34
2022-11-07T08:28:28.740Z,99945.19
2022-11-07T08:29:30.548Z,99944.59
2022-11-07T08:30:32.318Z,99940.75
2022-11-07T08:31:36.589Z,99943.75
2022-11-07T08:32:38.422Z,99926.19
2022-11-07T08:33:40.196Z,99952.78
2022-11-07T08:34:41.906Z,99954.28
2022-11-07T08:35:43.506Z,99953.44
2022-11-07T08:36:45.121Z,99949.28
2022-11-07T08:37:46.732Z,99953.88
2022-11-07T08:38:48.518Z,99950.34
2022-11-07T08:39:50.259Z,99952.31
2022-11-07T08:40:52.496Z,99946.78
2022-11-07T08:41:54.102Z,99945.25
2022-11-07T08:43:00.520Z,99957.41
2022-11-07T08:44:02.177Z,99958.78
2022-11-07T08:45:04.124Z,99951.78
2022-11-07T08:46:06.011Z,99953.69
2022-11-07T08:47:08.912Z,99958.00
2022-11-07T08:48:10.821Z,99957.41
2022-11-07T08:49:12.578Z,99950.91
2022-11-07T08:50:14.875Z,99953.53
2022-11-07T08:51:16.530Z,99956.03
2022-11-07T08:52:18.354Z,99957.38
2022-11-07T08:53:20.728Z,99953.75
2022-11-07T08:54:22.687Z,99935.09
2022-11-07T08:55:24.370Z,99957.69
2022-11-07T08:56:26.138Z,99945.53
2022-11-07T08:57:27.854Z,99949.88
2022-11-07T08:58:30.524Z,99959.19
2022-11-07T08:59:32.296Z,99953.16
2022-11-07T09:00:35.432Z,99953.69
2022-11-07T09:01:56.012Z,99946.56
2022-11-07T09:04:27.951Z,99947.59
2022-11-07T09:05:29.851Z,99960.44
2022-11-07T09:06:33.090Z,99957.31
2022-11-07T09:07:38.347Z,99963.69
2022-11-07T09:08:40.809Z,99962.03
2022-11-07T09:09:42.611Z,99958.44
2022-11-07T09:10:44.577Z,99960.59
2022-11-07T09:11:46.227Z,99960.59
2022-11-07T09:12:49.138Z,99967.75
2022-11-07T09:13:52.631Z,99960.88
2022-11-07T09:14:54.506Z,99961.63
2022-11-07T09:15:58.314Z,99965.59
2022-11-07T09:17:00.013Z,99959.22
2022-11-07T09:18:06.032Z,99973.91
2022-11-07T09:19:07.816Z,99973.50
2022-11-07T09:20:10.341Z,99970.97
2022-11-07T09:21:15.433Z,99973.41
2022-11-07T09:22:20.985Z,99965.69
2022-11-07T09:23:22.669Z,99968.97
2022-11-07T09:24:24.443Z,99970.28
2022-11-07T09:25:26.915Z,99965.94
2022-11-07T09:26:28.614Z,99966.13
2022-11-07T09:27:30.294Z,99966.53
2022-11-07T09:28:32.558Z,99972.94
2022-11-07T09:29:34.450Z,99973.88
2022-11-07T09:30:36.289Z,99971.22
2022-11-07T09:31:37.912Z,99971.34
2022-11-07T09:32:45.142Z,99975.00
2022-11-07T09:33:47.363Z,99968.03
2022-11-07T09:34:55.339Z,99964.47
2022-11-07T09:36:03.655Z,99976.13
2022-11-07T09:37:05.493Z,99972.44
2022-11-07T09:38:07.140Z,99975.34
2022-11-07T09:39:08.850Z,99975.19
2022-11-07T09:40:40.914Z,99965.22
2022-11-07T09:42:07.544Z,99973.22
2022-11-07T09:43:09.271Z,99968.31
2022-11-07T09:44:20.383Z,99971.06
2022-11-07T09:45:22.232Z,99977.94
2022-11-07T09:46:45.656Z,99966.16
2022-11-07T09:47:55.308Z,99968.03
2022-11-07T09:49:18.574Z,99973.25
2022-11-07T09:50:43.240Z,99978.34
2022-11-07T09:51:51.299Z,99977.97
2022-11-07T09:53:01.083Z,99968.31
2022-11-07T09:54:11.527Z,99974.66
2022-11-07T09:55:25.943Z,99970.66
2022-11-07T09:56:31.816Z,99968.44
2022-11-07T09:57:35.783Z,99977.25
2022-11-07T09:58:44.580Z,99973.06
2022-11-07T09:59:57.444Z,99972.31
2022-11-07T10:01:05.954Z,99963.28
2022-11-07T10:02:16.709Z,99972.34
2022-11-07T10:03:19.047Z,99970.25
2022-11-07T10:04:25.175Z,99967.22
2022-11-07T10:05:44.598Z,99959.13
2022-11-07T10:07:02.024Z,99972.03
2022-11-07T10:08:06.647Z,99965.88
2022-11-07T10:09:16.886Z,99968.53
2022-11-07T10:10:33.705Z,99974.69
2022-11-07T10:11:45.778Z,99969.53
2022-11-07T10:12:50.269Z,99970.97
2022-11-07T10:14:13.848Z,99970.38
2022-11-07T10:16:00.569Z,99974.53
2022-11-07T10:17:14.303Z,99944.63
2022-11-07T10:18:28.008Z,99973.25
2022-11-07T10:19:43.789Z,99966.66
2022-11-07T10:21:35.839Z,99966.53
2022-11-07T10:22:29.987Z,99972.53
2022-11-07T10:23:46.606Z,99966.78
2022-11-07T10:24:57.138Z,99963.00
2022-11-07T10:26:03.755Z,99966.44
2022-11-07T10:27:10.409Z,99966.09
2022-11-07T10:28:17.795Z,99972.56
2022-11-07T10:29:21.768Z,99965.28
2022-11-07T10:30:23.543Z,99974.81
2022-11-07T10:31:33.232Z,99970.38
2022-11-07T10:32:34.860Z,99979.16
2022-11-07T10:33:57.370Z,99986.63
2022-11-07T10:35:10.404Z,99975.50
2022-11-07T10:36:14.808Z,99970.53
2022-11-07T10:37:16.395Z,99976.38
2022-11-07T10:38:23.427Z,99975.75
2022-11-07T10:39:25.143Z,99973.75
2022-11-07T10:40:39.137Z,99974.59
2022-11-07T10:41:46.575Z,99970.53
2022-11-07T10:42:49.236Z,99972.03
2022-11-07T10:43:58.443Z,99982.03
2022-11-07T10:45:00.144Z,99979.31
2022-11-07T10:46:03.618Z,99979.19
2022-11-07T10:47:15.720Z,99974.69
2022-11-07T10:48:17.757Z,99977.63
2022-11-07T10:49:21.867Z,99987.13
2022-11-07T10:50:24.103Z,99985.47
2022-11-07T10:51:37.217Z,99987.53
2022-11-07T10:52:41.450Z,99991.22
2022-11-07T10:53:44.854Z,99982.56
2022-11-07T10:54:47.196Z,99986.22
2022-11-07T10:55:50.813Z,99984.06
2022-11-07T10:57:24.958Z,99982.94
2022-11-07T10:58:42.634Z,99980.38
2022-11-07T10:59:53.723Z,99977.66
2022-11-07T11:01:09.153Z,99984.44
2022-11-07T11:02:25.441Z,99983.75
2022-11-07T11:03:43.873Z,99981.31
2022-11-07T11:04:55.067Z,99979.91
2022-11-07T11:05:57.123Z,99991.66
2022-11-07T11:06:59.935Z,100000.91
2022-11-07T11:08:21.343Z,99993.22
2022-11-07T11:09:23.592Z,99990.19
2022-11-07T11:10:31.105Z,99977.09
2022-11-07T11:11:34.498Z,99975.69
2022-11-07T11:12:36.799Z,99979.91
2022-11-07T11:13:38.576Z,99970.28
2022-11-07T11:14:40.842Z,99974.72
2022-11-07T11:15:45.993Z,99977.06
2022-11-07T11:16:53.631Z,99977.06
2022-11-07T11:18:03.882Z,99975.38
2022-11-07T11:19:07.475Z,99974.94
2022-11-07T11:20:26.375Z,99973.78
2022-11-07T11:21:42.513Z,99978.97
2022-11-07T11:22:44.286Z,99984.53
2022-11-07T11:23:49.759Z,99978.31
2022-11-07T11:25:17.601Z,99967.66
2022-11-07T11:26:31.853Z,99973.97
2022-11-07T11:27:35.499Z,99966.78
2022-11-07T11:28:40.209Z,99967.03
2022-11-07T11:29:51.407Z,99961.09
2022-11-07T11:31:01.358Z,99951.19
2022-11-07T11:32:04.797Z,99955.25
2022-11-07T11:33:14.433Z,99949.44
2022-11-07T11:34:19.534Z,99955.53
2022-11-07T11:35:36.334Z,99950.50
2022-11-07T11:36:51.543Z,99953.44
2022-11-07T11:38:02.997Z,99939.50
2022-11-07T11:39:13.185Z,99947.28
2022-11-07T11:40:22.560Z,99947.31
2022-11-07T11:41:42.342Z,99963.84
2022-11-07T11:42:59.142Z,99940.66
2022-11-07T11:44:03.944Z,99941.38
2022-11-07T11:45:16.771Z,99943.59
2022-11-07T11:46:27.647Z,99942.50
2022-11-07T11:47:40.666Z,99933.28
2022-11-07T11:48:51.899Z,99933.03
2022-11-07T11:49:55.777Z,99933.16
2022-11-07T11:51:06.491Z,99937.03
2022-11-07T11:52:21.280Z,99948.31
2022-11-07T11:53:23.380Z,99944.44
2022-11-07T11:54:25.197Z,99941.06
2022-11-07T11:55:38.719Z,99938.75
2022-11-07T11:57:01.329Z,99925.31
2022-11-07T11:58:12.268Z,99934.81
2022-11-07T11:59:17.180Z,99934.59
2022-11-07T12:00:24.190Z,99932.53
2022-11-07T12:01:47.036Z,99919.31
2022-11-07T12:03:19.753Z,99907.03
2022-11-07T12:04:49.284Z,99916.59
2022-11-07T12:06:17.764Z,99916.59
2022-11-07T12:07:36.495Z,99911.31
2022-11-07T12:08:50.452Z,99910.13
2022-11-07T12:10:13.615Z,99915.28
2022-11-07T12:11:27.984Z,99909.03
2022-11-07T12:12:47.729Z,99906.84
2022-11-07T12:14:27.823Z,99908.41
2022-11-07T12:15:48.852Z,99908.69
2022-11-07T12:17:11.371Z,99915.41
2022-11-07T12:18:24.388Z,99912.88
2022-11-07T12:19:37.903Z,99911.19
2022-11-07T12:21:04.040Z,99901.91
2022-11-07T12:22:50.090Z,99912.97
2022-11-07T12:23:59.896Z,99899.81
2022-11-07T12:25:04.478Z,99906.34
2022-11-07T12:26:26.216Z,99903.84
2022-11-07T12:27:36.732Z,99905.00
2022-11-07T12:29:15.063Z,99903.34
2022-11-07T12:30:34.122Z,99896.78
2022-11-07T12:31:57.327Z,99902.22
2022-11-07T12:33:08.258Z,99895.47
2022-11-07T12:34:24.927Z,99904.03
2022-11-07T12:35:32.384Z,99898.72
2022-11-07T12:37:12.885Z,99898.09
2022-11-07T12:38:20.585Z,99893.44
2022-11-07T12:39:45.976Z,99892.94
2022-11-07T12:40:53.820Z,99900.03
2022-11-07T12:42:13.940Z,99903.50
2022-11-07T12:43:51.012Z,99897.81
2022-11-07T12:45:04.749Z,99897.69
2022-11-07T12:46:44.105Z,99902.97
2022-11-07T12:48:12.821Z,99898.44
2022-11-07T12:49:26.893Z,99897.47
2022-11-07T12:50:41.133Z,99886.91
2022-11-07T12:51:48.613Z,99899.38
2022-11-07T12:53:14.078Z,99891.97
2022-11-07T12:54:37.841Z,99900.47
2022-11-07T12:55:44.515Z,99897.06
2022-11-07T12:56:48.653Z,99891.69
2022-11-07T12:57:53.242Z,99897.66
2022-11-07T12:58:55.359Z,99900.59
2022-11-07T13:00:03.359Z,99857.88
2022-11-07T13:01:06.011Z,99889.63
2022-11-07T13:02:32.123Z,99886.31
2022-11-07T13:03:49.517Z,99883.44
2022-11-07T13:05:17.143Z,99894.00
2022-11-07T13:06:18.986Z,99895.94
2022-11-07T13:07:51.019Z,99901.00
2022-11-07T13:09:16.942Z,99895.34
2022-11-07T13:10:30.978Z,99887.34
2022-11-07T13:11:40.635Z,99891.28
2022-11-07T13:12:54.722Z,99883.22
2022-11-07T13:14:23.957Z,99897.22
2022-11-07T13:15:27.469Z,99881.06
2022-11-07T13:16:32.199Z,99888.94
2022-11-07T13:17:42.711Z,99873.59
2022-11-07T13:18:44.473Z,99879.47
2022-11-07T13:19:59.688Z,99857.16
2022-11-07T13:21:06.664Z,99881.91
2022-11-07T13:22:17.269Z,99873.44
2022-11-07T13:23:26.474Z,99872.94
2022-11-07T13:24:29.770Z,99878.53
2022-11-07T13:25:33.720Z,99871.56
2022-11-07T13:26:50.883Z,99886.75
2022-11-07T13:27:55.340Z,99886.75
2022-11-07T13:28:59.617Z,99882.41
2022-11-07T13:30:13.763Z,99895.75
2022-11-07T13:31:38.510Z,99887.75
2022-11-07T13:33:03.422Z,99881.69
2022-11-07T13:34:11.867Z,99881.44
2022-11-07T13:35:22.761Z,99873.25
2022-11-07T13:36:27.937Z,99887.47
2022-11-07T13:37:36.691Z,99881.25
2022-11-07T13:38:48.502Z,99879.38
2022-11-07T13:39:55.205Z,99871.81
2022-11-07T13:41:03.907Z,99890.91
2022-11-07T13:42:05.887Z,99851.59
2022-11-07T13:43:18.791Z,99885.22
2022-11-07T13:44:23.590Z,99875.81
2022-11-07T13:45:31.672Z,99889.66
2022-11-07T13:46:46.490Z,99881.75
2022-11-07T13:47:48.315Z,99884.47
2022-11-07T13:49:00.076Z,99887.84
2022-11-07T13:50:16.421Z,99885.72
2022-11-07T13:51:43.170Z,99892.06
2022-11-07T13:52:57.389Z,99891.16
2022-11-07T13:54:11.513Z,99894.88
2022-11-07T13:55:20.427Z,99878.38
2022-11-07T13:56:22.156Z,99886.31
2022-11-07T13:57:31.623Z,99885.44
2022-11-07T13:58:39.505Z,99888.75
2022-11-07T13:59:57.162Z,99880.81
2022-11-07T14:01:14.510Z,99875.00
2022-11-07T14:02:25.846Z,99887.47
2022-11-07T14:03:28.263Z,99885.00
2022-11-07T14:04:30.020Z,99889.03
2022-11-07T14:05:37.203Z,99885.47
2022-11-07T14:06:41.738Z,99888.22
2022-11-07T14:07:49.500Z,99872.44
2022-11-07T14:08:51.417Z,99878.47
2022-11-07T14:09:59.227Z,99876.53
2022-11-07T14:11:01.463Z,99878.94
2022-11-07T14:12:03.464Z,99874.31
2022-11-07T14:13:12.214Z,99880.66
2022-11-07T14:14:14.627Z,99881.19
2022-11-07T14:15:20.068Z,99884.09
2022-11-07T14:16:31.913Z,99882.06
2022-11-07T14:17:36.428Z,99889.13